Time;durP1;ratioP1;P1;durP2;ratioP2;P2;SDS_P1;SDS_P2;PMS_P1;PMS_P2;Temp;Humidity;BMP_temperature;BMP_pressure;BME280_temperature;BME280_humidity;BME280_pressure;Samples;Min_cycle;Max_cycle;Signal;HPM_P1;HPM_P2
2021/10/15 00:00:22;;;;;;;;;;;;;;;15.98;66.36;101966.31;5004137;28;104582;-51
2021/10/15 00:02:50;;;;;;;;;;;;;;;15.98;66.44;101963.59;5013773;28;102460;-51
2021/10/15 00:05:16;;;;;;;;;;;;;;;15.99;66.51;101967.16;5015906;28;102220;-51
2021/10/15 00:07:42;;;;;;;;;;;;;;;15.98;66.94;101971.00;5016934;28;102224;-51
2021/10/15 00:10:09;;;;;;;;;;;;;;;15.97;66.73;101970.16;5015683;28;103943;-51
2021/10/15 00:12:36;;;;;;;;;;;;;;;15.98;66.48;101965.50;5010786;28;102343;-51
2021/10/15 00:15:04;;;;;;;;;;;;;;;15.98;66.85;101971.00;5015356;28;102184;-51
2021/10/15 00:17:30;;;;;;;;;;;;;;;15.99;66.58;101967.97;5015125;28;102592;-51
2021/10/15 00:20:00;;;;;;;;;;;;;;;15.98;66.48;101960.84;5014549;28;103916;-51
2021/10/15 00:22:26;;;;;;;;;;;;;;;15.98;66.84;101966.31;5012480;28;102250;-51
2021/10/15 00:24:53;;;;;;;;;;;;;;;15.98;66.35;101954.53;5015392;28;102241;-51
2021/10/15 00:27:19;;;;;;;;;;;;;;;15.98;66.31;101957.28;5015888;28;102296;-51
2021/10/15 00:29:45;;;;;;;;;;;;;;;15.97;66.85;101959.16;5007886;28;103881;-51
2021/10/15 00:32:11;;;;;;;;;;;;;;;15.97;66.41;101953.69;5003262;28;102187;-51
2021/10/15 00:34:39;;;;;;;;;;;;;;;15.97;66.37;101959.16;5013886;28;102012;-51
2021/10/15 00:37:06;;;;;;;;;;;;;;;15.97;66.65;101953.69;5015198;28;102218;-51
2021/10/15 00:39:34;;;;;;;;;;;;;;;15.98;66.90;101960.00;5009442;28;103966;-51
2021/10/15 00:42:00;;;;;;;;;;;;;;;15.97;66.59;101956.41;5015466;28;102945;-51
2021/10/15 00:44:27;;;;;;;;;;;;;;;15.97;66.48;101942.69;5012004;28;102612;-51
2021/10/15 00:46:54;;;;;;;;;;;;;;;15.97;67.00;101948.19;5015130;28;102781;-51
2021/10/15 00:49:20;;;;;;;;;;;;;;;15.97;66.89;101953.69;5012204;28;104764;-51
2021/10/15 00:51:46;;;;;;;;;;;;;;;15.97;66.75;101953.69;5016037;28;102322;-52
2021/10/15 00:54:15;;;;;;;;;;;;;;;15.97;66.68;101948.19;5012545;28;104293;-51
2021/10/15 00:56:41;;;;;;;;;;;;;;;15.97;66.74;101953.69;5016355;28;102565;-51
2021/10/15 00:59:08;;;;;;;;;;;;;;;15.97;66.88;101953.69;5014101;28;104002;-51
2021/10/15 01:01:34;;;;;;;;;;;;;;;15.97;66.56;101948.19;5002611;28;102203;-51
2021/10/15 01:04:00;;;;;;;;;;;;;;;15.97;67.02;101953.69;5017367;28;102440;-51
2021/10/15 01:06:28;;;;;;;;;;;;;;;15.98;66.42;101962.75;5020338;28;102239;-51
2021/10/15 01:08:55;;;;;;;;;;;;;;;15.97;66.87;101961.91;5017280;28;103864;-51
2021/10/15 01:11:23;;;;;;;;;;;;;;;15.96;66.95;101957.53;5017720;28;102314;-51
2021/10/15 01:13:50;;;;;;;;;;;;;;;15.98;66.45;101965.50;5000754;28;102194;-51
2021/10/15 01:16:16;;;;;;;;;;;;;;;15.97;66.76;101959.16;5015064;28;102945;-51
2021/10/15 01:18:43;;;;;;;;;;;;;;;15.97;66.95;101964.66;5013141;28;104035;-51
2021/10/15 01:21:11;;;;;;;;;;;;;;;15.97;66.51;101959.16;5012703;28;102681;-51
2021/10/15 01:23:39;;;;;;;;;;;;;;;15.97;66.60;101947.38;5014592;28;102544;-51
2021/10/15 01:26:05;;;;;;;;;;;;;;;15.98;66.55;101949.03;5013931;28;102416;-51
2021/10/15 01:28:35;;;;;;;;;;;;;;;15.97;66.79;101953.69;5008018;28;104137;-51
2021/10/15 01:31:01;;;;;;;;;;;;;;;15.97;66.95;101953.69;5013674;28;102281;-51
2021/10/15 01:33:28;;;;;;;;;;;;;;;15.97;66.42;101959.16;5014640;28;102557;-51
2021/10/15 01:35:55;;;;;;;;;;;;;;;15.98;66.54;101957.28;5014546;28;102253;-51
2021/10/15 01:38:22;;;;;;;;;;;;;;;15.97;66.55;101950.94;5011373;28;103912;-51
2021/10/15 01:40:48;;;;;;;;;;;;;;;15.98;66.51;101960.00;5012157;28;102286;-51
2021/10/15 01:43:19;;;;;;;;;;;;;;;15.98;67.00;101958.09;5012618;28;102286;-51
2021/10/15 01:45:45;;;;;;;;;;;;;;;15.97;67.07;101959.16;5014438;28;102584;-51
2021/10/15 01:48:11;;;;;;;;;;;;;;;15.97;66.63;101959.16;5009503;28;103844;-51
2021/10/15 01:50:37;;;;;;;;;;;;;;;15.96;66.77;101952.03;5013086;28;102537;-51
2021/10/15 01:53:04;;;;;;;;;;;;;;;15.97;66.75;101959.16;5013424;28;102239;-51
2021/10/15 01:55:32;;;;;;;;;;;;;;;15.97;66.62;101945.44;5013756;28;102205;-51
2021/10/15 01:57:58;;;;;;;;;;;;;;;15.97;66.70;101950.09;5009719;28;103913;-51
2021/10/15 02:00:24;;;;;;;;;;;;;;;15.97;66.92;101942.69;5006120;28;102513;-51
2021/10/15 02:02:51;;;;;;;;;;;;;;;15.97;66.45;101945.44;5007037;28;102597;-51
2021/10/15 02:05:17;;;;;;;;;;;;;;;15.97;66.60;101942.69;5015071;28;102235;-51
2021/10/15 02:07:44;;;;;;;;;;;;;;;15.96;66.88;101941.06;5013242;28;103900;-51
2021/10/15 02:10:11;;;;;;;;;;;;;;;15.97;66.54;101941.88;5013916;28;102374;-51
2021/10/15 02:12:39;;;;;;;;;;;;;;;15.97;66.93;101941.88;4997719;28;102221;-51
2021/10/15 02:15:06;;;;;;;;;;;;;;;15.97;66.57;101934.44;5012804;28;102596;-51
2021/10/15 02:17:33;;;;;;;;;;;;;;;15.97;66.62;101937.19;5012416;28;104011;-51
2021/10/15 02:19:59;;;;;;;;;;;;;;;15.97;66.94;101928.97;5013259;28;103074;-51
2021/10/15 02:22:25;;;;;;;;;;;;;;;15.97;66.45;101931.72;4991924;28;102320;-51
2021/10/15 02:24:51;;;;;;;;;;;;;;;15.96;66.95;101935.56;5010047;28;103230;-51
2021/10/15 02:27:18;;;;;;;;;;;;;;;15.96;66.80;101941.06;5010966;28;104627;-51
2021/10/15 02:29:45;;;;;;;;;;;;;;;15.96;66.55;101941.06;5012719;28;102609;-51
2021/10/15 02:32:11;;;;;;;;;;;;;;;15.97;66.97;101934.44;5014131;28;102083;-51
2021/10/15 02:34:38;;;;;;;;;;;;;;;15.97;66.63;101936.38;5015813;28;102266;-51
2021/10/15 02:37:04;;;;;;;;;;;;;;;15.97;66.46;101936.38;5014073;28;103173;-52
2021/10/15 02:39:32;;;;;;;;;;;;;;;15.96;66.92;101935.56;5011604;28;102149;-51
2021/10/15 02:41:58;;;;;;;;;;;;;;;15.97;66.92;101925.41;5010546;28;102017;-51
2021/10/15 02:44:24;;;;;;;;;;;;;;;15.96;66.64;101930.06;5010866;28;102255;-51
2021/10/15 02:46:51;;;;;;;;;;;;;;;15.97;67.01;101931.72;4992952;28;103963;-51
2021/10/15 02:49:17;;;;;;;;;;;;;;;15.97;66.77;101930.88;4992602;28;102313;-51
2021/10/15 02:51:44;;;;;;;;;;;;;;;15.97;66.50;101936.38;4991561;28;102614;-56
2021/10/15 02:54:10;;;;;;;;;;;;;;;15.96;67.01;101935.56;4998891;28;102326;-51
2021/10/15 02:56:36;;;;;;;;;;;;;;;15.96;67.02;101943.81;5004361;28;103875;-51
2021/10/15 02:59:02;;;;;;;;;;;;;;;15.96;66.72;101946.53;5001072;28;102235;-51
2021/10/15 03:01:29;;;;;;;;;;;;;;;15.97;66.52;101948.19;4995694;28;102652;-51
2021/10/15 03:03:56;;;;;;;;;;;;;;;15.97;66.61;101956.41;5015218;28;102508;-51
2021/10/15 03:06:22;;;;;;;;;;;;;;;15.96;66.87;101957.53;5001190;28;103780;-51
2021/10/15 03:08:49;;;;;;;;;;;;;;;15.97;66.79;101961.91;5015368;28;102141;-51
2021/10/15 03:11:15;;;;;;;;;;;;;;;15.96;66.53;101942.97;5011937;28;102231;-51
2021/10/15 03:13:41;;;;;;;;;;;;;;;15.96;67.22;101946.53;5006827;28;102249;-51
2021/10/15 03:16:09;;;;;;;;;;;;;;;15.96;67.02;101952.03;5006693;28;103977;-51
2021/10/15 03:18:36;;;;;;;;;;;;;;;15.97;66.85;101952.84;5017169;28;102277;-51
2021/10/15 03:21:03;;;;;;;;;;;;;;;15.97;66.61;101958.34;5007301;28;102501;-51
2021/10/15 03:23:30;;;;;;;;;;;;;;;15.96;66.85;101957.53;5009249;28;102275;-51
2021/10/15 03:25:56;;;;;;;;;;;;;;;15.96;67.00;101954.78;5015599;28;104030;-51
2021/10/15 03:28:22;;;;;;;;;;;;;;;15.96;66.57;101949.28;5016260;28;103227;-51
2021/10/15 03:30:48;;;;;;;;;;;;;;;15.97;66.77;101947.38;5017317;28;102265;-51
2021/10/15 03:33:14;;;;;;;;;;;;;;;15.96;66.94;101946.53;5015567;28;102108;-51
2021/10/15 03:35:41;;;;;;;;;;;;;;;15.96;67.13;101952.03;5008825;28;103841;-51
2021/10/15 03:38:08;;;;;;;;;;;;;;;15.96;66.73;101957.53;4999054;28;102628;-50
2021/10/15 03:40:35;;;;;;;;;;;;;;;15.97;66.79;101958.34;5015746;28;102511;-51
2021/10/15 03:43:01;;;;;;;;;;;;;;;15.95;66.69;101961.38;4999490;28;102236;-51
2021/10/15 03:45:28;;;;;;;;;;;;;;;15.96;66.64;101962.19;5015773;28;103729;-51
2021/10/15 03:47:54;;;;;;;;;;;;;;;15.95;67.12;101966.88;5000834;28;102164;-51
2021/10/15 03:50:20;;;;;;;;;;;;;;;15.96;66.48;101973.19;5014610;28;102411;-51
2021/10/15 03:52:46;;;;;;;;;;;;;;;15.95;66.97;101971.53;5006764;28;102214;-51
2021/10/15 03:55:14;;;;;;;;;;;;;;;15.96;66.90;101981.41;4991222;28;104027;-51
2021/10/15 03:57:41;;;;;;;;;;;;;;;15.96;66.70;101984.16;4989921;28;103140;-51
2021/10/15 04:00:08;;;;;;;;;;;;;;;15.96;66.77;101995.16;4989822;28;102226;-51
2021/10/15 04:02:36;;;;;;;;;;;;;;;15.96;66.91;102001.47;4991356;28;102196;-51
2021/10/15 04:05:03;;;;;;;;;;;;;;;15.95;66.68;101999.81;4985778;28;103985;-51
2021/10/15 04:07:29;;;;;;;;;;;;;;;15.95;67.14;101991.59;4989605;28;102576;-51
2021/10/15 04:09:55;;;;;;;;;;;;;;;15.96;66.58;101995.97;4995534;28;102440;-51
2021/10/15 04:12:23;;;;;;;;;;;;;;;15.96;66.59;101990.47;4993071;28;102672;-51
2021/10/15 04:14:49;;;;;;;;;;;;;;;15.95;67.12;101988.84;4992689;28;103723;-51
2021/10/15 04:17:15;;;;;;;;;;;;;;;15.96;66.62;101984.97;4992213;28;102855;-51
2021/10/15 04:19:41;;;;;;;;;;;;;;;15.95;67.04;101990.75;5001223;28;102301;-51
2021/10/15 04:22:11;;;;;;;;;;;;;;;15.96;66.76;101995.16;5017151;28;102723;-51
2021/10/15 04:24:37;;;;;;;;;;;;;;;15.95;67.01;101994.31;5015035;28;104020;-51
2021/10/15 04:27:04;;;;;;;;;;;;;;;15.95;66.83;101988.84;5015085;28;102887;-51
2021/10/15 04:29:32;;;;;;;;;;;;;;;15.95;66.97;101983.34;5015640;28;102358;-51
2021/10/15 04:31:59;;;;;;;;;;;;;;;15.95;67.08;101994.31;5017383;28;102257;-51
2021/10/15 04:34:25;;;;;;;;;;;;;;;15.95;66.65;101997.06;5007456;28;104102;-51
2021/10/15 04:36:52;;;;;;;;;;;;;;;15.95;66.57;101988.84;5012959;28;102543;-51
2021/10/15 04:39:18;;;;;;;;;;;;;;;15.96;66.65;101984.16;5004835;28;102090;-51
2021/10/15 04:41:44;;;;;;;;;;;;;;;15.95;66.56;101991.59;5006823;28;102807;-51
2021/10/15 04:44:10;;;;;;;;;;;;;;;15.94;67.12;101992.69;5014238;28;103909;-51
2021/10/15 04:46:38;;;;;;;;;;;;;;;15.95;66.58;101988.03;5008954;28;102112;-51
2021/10/15 04:49:04;;;;;;;;;;;;;;;15.95;67.01;101991.59;5009690;28;102180;-51
2021/10/15 04:51:31;;;;;;;;;;;;;;;15.95;66.66;101994.31;5013820;28;102355;-51
2021/10/15 04:53:57;;;;;;;;;;;;;;;15.96;66.89;102000.63;5016188;28;103920;-51
2021/10/15 04:56:23;;;;;;;;;;;;;;;15.94;66.86;101989.94;5010400;28;102588;-51
2021/10/15 04:58:50;;;;;;;;;;;;;;;15.95;66.78;101994.31;5010101;28;102459;-51
2021/10/15 05:01:16;;;;;;;;;;;;;;;15.94;66.67;101991.84;5012929;28;102094;-51
2021/10/15 05:03:43;;;;;;;;;;;;;;;15.94;66.87;101992.69;5013699;28;104111;-51
2021/10/15 05:06:10;;;;;;;;;;;;;;;15.94;66.82;101989.94;5008699;28;102183;-51
2021/10/15 05:11:39;;;;;;;;;;;;;;;15.95;66.86;101977.03;4974563;28;102254;-51
2021/10/15 05:14:05;;;;;;;;;;;;;;;15.95;66.58;101980.59;5012427;28;103828;-51
2021/10/15 05:16:32;;;;;;;;;;;;;;;15.93;66.57;101977.28;5016823;28;102222;-51
2021/10/15 05:19:02;;;;;;;;;;;;;;;15.93;66.57;101985.53;5007281;28;102495;-52
2021/10/15 05:21:28;;;;;;;;;;;;;;;15.94;66.66;101991.84;5011645;28;102291;-51
2021/10/15 05:23:54;;;;;;;;;;;;;;;15.94;67.04;101986.34;5013467;28;103710;-51
2021/10/15 05:26:20;;;;;;;;;;;;;;;15.94;66.84;101984.47;5010512;28;102338;-51
2021/10/15 05:28:47;;;;;;;;;;;;;;;15.93;66.61;101985.53;5016539;28;102595;-51
2021/10/15 05:31:13;;;;;;;;;;;;;;;15.93;67.14;101982.78;5018009;28;102318;-51
2021/10/15 05:33:40;;;;;;;;;;;;;;;15.93;66.90;101985.53;5016191;28;103936;-51
2021/10/15 05:36:08;;;;;;;;;;;;;;;15.93;66.78;101985.53;5016012;28;102338;-51
2021/10/15 05:38:34;;;;;;;;;;;;;;;15.93;66.98;101995.69;5010963;28;102313;-51
2021/10/15 05:41:00;;;;;;;;;;;;;;;15.93;67.17;101993.78;5014171;28;102369;-51
2021/10/15 05:43:26;;;;;;;;;;;;;;;15.92;67.04;101994.88;5014866;28;104174;-51
2021/10/15 05:45:52;;;;;;;;;;;;;;;15.94;66.73;101991.84;5014457;28;102457;-51
2021/10/15 05:48:18;;;;;;;;;;;;;;;15.92;66.81;102000.38;5009291;28;102145;-51
2021/10/15 05:50:44;;;;;;;;;;;;;;;15.93;67.03;102004.75;5008820;28;102317;-51
2021/10/15 05:53:16;;;;;;;;;;;;;;;15.92;66.98;102005.84;5010662;28;103986;-51
2021/10/15 06:00:54;;;;;;;;;;;;;;;15.93;67.14;102014.91;5004763;28;102956;-51
2021/10/15 06:03:23;;;;;;;;;;;;;;;15.92;66.61;102013.28;5006242;28;103999;-51
2021/10/15 06:14:17;;;;;;;;;;;;;;;15.93;66.72;102017.66;5010852;28;103927;-51
2021/10/15 06:17:18;;;;;;;;;;;;;;;15.92;67.14;102005.84;5010687;28;102345;-51
2021/10/15 06:19:46;;;;;;;;;;;;;;;15.93;66.90;102002.00;5003542;28;102470;-51
2021/10/15 06:22:13;;;;;;;;;;;;;;;15.92;67.11;102000.38;4998796;28;102566;-51
2021/10/15 06:24:40;;;;;;;;;;;;;;;15.92;67.18;101994.88;5011606;28;103851;-51
2021/10/15 06:27:07;;;;;;;;;;;;;;;15.92;67.04;101997.63;5004537;28;102460;-51
2021/10/15 06:29:33;;;;;;;;;;;;;;;15.93;66.72;101999.25;5002418;28;102665;-51
2021/10/15 06:31:59;;;;;;;;;;;;;;;15.93;67.14;101991.03;5008434;28;103386;-51
2021/10/15 06:34:25;;;;;;;;;;;;;;;15.93;67.16;101987.47;5012588;28;103882;-51
2021/10/15 06:36:51;;;;;;;;;;;;;;;15.93;66.70;101985.53;5015266;28;102267;-51
2021/10/15 06:39:18;;;;;;;;;;;;;;;15.93;66.79;101991.03;5008836;28;101990;-51
2021/10/15 06:41:46;;;;;;;;;;;;;;;15.94;67.12;101986.34;5011722;28;102498;-51
2021/10/15 06:44:13;;;;;;;;;;;;;;;15.93;67.19;101980.03;5017704;28;103894;-51
2021/10/15 06:46:39;;;;;;;;;;;;;;;15.94;66.66;101976.22;5016180;28;103672;-51
2021/10/15 06:49:05;;;;;;;;;;;;;;;15.94;66.93;101970.72;5017245;28;102160;-51
2021/10/15 06:51:31;;;;;;;;;;;;;;;15.94;66.94;101970.72;5013855;28;102273;-51
2021/10/15 06:53:58;;;;;;;;;;;;;;;15.95;66.78;101963.31;5012577;28;103892;-51
2021/10/15 06:56:24;;;;;;;;;;;;;;;15.93;66.81;101966.31;5014145;28;102491;-51
2021/10/15 06:58:52;;;;;;;;;;;;;;;15.94;66.69;101959.75;5013689;28;102341;-51
2021/10/15 07:01:18;;;;;;;;;;;;;;;15.94;67.00;101970.72;5017957;28;102317;-51
2021/10/15 07:03:44;;;;;;;;;;;;;;;15.95;66.83;101977.84;5014899;28;103733;-51
2021/10/15 07:06:10;;;;;;;;;;;;;;;15.94;67.20;101970.72;5012505;28;102172;-51
2021/10/15 07:08:37;;;;;;;;;;;;;;;15.94;66.93;101976.22;5017447;28;102040;-51
2021/10/15 07:11:03;;;;;;;;;;;;;;;15.95;67.29;101971.53;5011725;28;102235;-51
2021/10/15 07:13:29;;;;;;;;;;;;;;;15.95;66.81;101972.38;5005708;28;103887;-51
2021/10/15 07:15:57;;;;;;;;;;;;;;;15.96;67.14;101968.50;5015853;28;102518;-51
2021/10/15 07:18:23;;;;;;;;;;;;;;;15.96;67.21;101968.50;5015487;28;102367;-51
2021/10/15 07:20:49;;;;;;;;;;;;;;;15.96;66.92;101963.03;5014342;28;102518;-51
2021/10/15 07:23:16;;;;;;;;;;;;;;;15.96;66.74;101967.69;5014319;28;103704;-51
2021/10/15 07:25:43;;;;;;;;;;;;;;;15.95;67.20;101961.38;5012118;28;102391;-51
2021/10/15 07:28:09;;;;;;;;;;;;;;;15.96;67.11;101948.47;5012441;28;102582;-51
2021/10/15 07:30:36;;;;;;;;;;;;;;;15.95;66.78;101942.16;5015619;28;102298;-51
2021/10/15 07:33:04;;;;;;;;;;;;;;;15.95;67.12;101952.31;5013031;28;103742;-51
2021/10/15 07:35:30;;;;;;;;;;;;;;;15.95;66.75;101961.38;5014178;28;102142;-51
2021/10/15 07:37:56;;;;;;;;;;;;;;;15.95;66.71;101950.41;5013106;28;102511;-51
2021/10/15 07:40:22;;;;;;;;;;;;;;;15.95;66.76;101947.66;5013203;28;102214;-51
2021/10/15 07:42:48;;;;;;;;;;;;;;;15.95;66.90;101950.41;5016022;28;103984;-51
2021/10/15 07:45:14;;;;;;;;;;;;;;;15.95;66.66;101947.66;5014373;28;102504;-51
2021/10/15 07:47:42;;;;;;;;;;;;;;;15.94;67.16;101943.28;5016528;28;102153;-51
2021/10/15 07:50:09;;;;;;;;;;;;;;;15.95;67.04;101950.41;5014997;28;102386;-51
2021/10/15 07:52:38;;;;;;;;;;;;;;;15.95;66.66;101936.69;5016031;28;104236;-51
2021/10/15 07:55:05;;;;;;;;;;;;;;;15.95;66.87;101938.59;5013871;28;102483;-51
2021/10/15 07:57:31;;;;;;;;;;;;;;;15.94;66.81;101932.28;5012429;28;103080;-51
2021/10/15 07:59:57;;;;;;;;;;;;;;;15.94;66.58;101940.53;5014228;28;102519;-51
2021/10/15 08:02:25;;;;;;;;;;;;;;;15.95;67.21;101938.59;5010072;28;103867;-51
2021/10/15 08:04:51;;;;;;;;;;;;;;;15.95;66.79;101938.59;5012038;28;103213;-51
2021/10/15 08:07:19;;;;;;;;;;;;;;;15.95;66.76;101938.59;5014207;28;102303;-51
2021/10/15 08:09:45;;;;;;;;;;;;;;;15.93;66.69;101936.13;5017602;28;102240;-51
2021/10/15 08:12:11;;;;;;;;;;;;;;;15.94;66.90;101937.78;5015264;28;103910;-51
2021/10/15 08:14:38;;;;;;;;;;;;;;;15.94;67.03;101940.53;5013656;28;102627;-51
2021/10/15 08:17:04;;;;;;;;;;;;;;;15.94;66.77;101942.41;5012895;28;102406;-51
2021/10/15 08:19:30;;;;;;;;;;;;;;;15.94;66.70;101946.03;5015544;28;102140;-51
2021/10/15 08:21:56;;;;;;;;;;;;;;;15.94;66.77;101940.53;5013644;28;103749;-51
2021/10/15 08:24:24;;;;;;;;;;;;;;;15.93;67.14;101938.84;5012727;28;102521;-51
2021/10/15 08:26:50;;;;;;;;;;;;;;;15.94;67.14;101932.28;5005028;28;102347;-52
2021/10/15 08:29:17;;;;;;;;;;;;;;;15.95;66.53;101938.59;5014652;28;102276;-51
2021/10/15 08:31:43;;;;;;;;;;;;;;;15.94;66.65;101945.16;5014069;28;103728;-51
2021/10/15 08:34:10;;;;;;;;;;;;;;;15.94;66.73;101950.66;5015807;28;103963;-51
2021/10/15 08:36:38;;;;;;;;;;;;;;;15.93;66.97;101949.84;5016710;28;105705;-51
2021/10/15 08:39:04;;;;;;;;;;;;;;;15.94;67.06;101948.75;5016497;28;102241;-51
2021/10/15 08:41:32;;;;;;;;;;;;;;;15.94;66.66;101951.50;5014674;28;103941;-51
2021/10/15 08:43:58;;;;;;;;;;;;;;;15.94;66.59;101946.03;5017341;28;102540;-51
2021/10/15 08:46:26;;;;;;;;;;;;;;;15.94;66.55;101954.25;5014118;28;102468;-51
2021/10/15 08:48:52;;;;;;;;;;;;;;;15.94;66.56;101958.91;5018901;28;102171;-51
2021/10/15 08:51:19;;;;;;;;;;;;;;;15.93;66.60;101958.06;5011483;28;103902;-51
2021/10/15 08:53:46;;;;;;;;;;;;;;;15.94;67.06;101959.75;5015709;28;102208;-51
2021/10/15 08:56:15;;;;;;;;;;;;;;;15.94;66.92;101954.25;5015837;28;102406;-51
2021/10/15 08:58:44;;;;;;;;;;;;;;;15.93;66.68;101949.84;5015305;28;102124;-51
2021/10/15 09:01:10;;;;;;;;;;;;;;;15.94;66.70;101950.66;5013564;28;103646;-51
2021/10/15 09:03:37;;;;;;;;;;;;;;;15.94;66.61;101947.91;5016965;28;102146;-51
2021/10/15 09:06:04;;;;;;;;;;;;;;;15.93;66.60;101947.09;5005911;28;102015;-52
2021/10/15 09:08:43;;;;;;;;;;;;;;;15.93;66.89;101936.13;5018191;28;102092;-51
2021/10/15 09:11:21;;;;;;;;;;;;;;;15.94;66.69;101939.69;5011596;28;103903;-51
2021/10/15 09:13:50;;;;;;;;;;;;;;;15.94;67.13;101937.78;5011337;28;102552;-51
2021/10/15 09:16:16;;;;;;;;;;;;;;;15.94;67.15;101932.28;5009152;28;102537;-51
2021/10/15 09:18:45;;;;;;;;;;;;;;;15.93;66.76;101936.13;5015080;28;102220;-51
2021/10/15 09:21:15;;;;;;;;;;;;;;;15.95;66.91;101939.41;5014376;28;104126;-51
2021/10/15 09:23:42;;;;;;;;;;;;;;;15.94;67.04;101948.75;5013577;28;103305;-51
2021/10/15 09:26:09;;;;;;;;;;;;;;;15.95;66.66;101952.31;5012794;28;102231;-51
2021/10/15 09:28:39;;;;;;;;;;;;;;;15.95;66.88;101952.31;5014539;28;102215;-51
2021/10/15 09:31:07;;;;;;;;;;;;;;;15.94;66.89;101948.75;5013068;28;103791;-51
2021/10/15 09:33:33;;;;;;;;;;;;;;;15.95;67.22;101950.41;5014092;28;102162;-51
2021/10/15 09:36:03;;;;;;;;;;;;;;;15.95;66.99;101955.88;5013925;28;102701;-51
2021/10/15 09:38:29;;;;;;;;;;;;;;;15.95;66.60;101950.41;5013663;28;103148;-51
2021/10/15 09:40:56;;;;;;;;;;;;;;;15.94;66.71;101948.75;5013102;28;103967;-51
2021/10/15 09:43:31;;;;;;;;;;;;;;;15.96;67.00;101952.03;5015007;28;101981;-51
2021/10/15 09:45:57;;;;;;;;;;;;;;;15.95;67.15;101950.41;5010199;28;102105;-51
2021/10/15 09:48:26;;;;;;;;;;;;;;;15.95;66.97;101955.88;5009163;28;102116;-51
2021/10/15 09:51:11;;;;;;;;;;;;;;;15.96;66.65;101954.78;5010953;28;104234;-51
2021/10/15 09:53:38;;;;;;;;;;;;;;;15.96;67.02;101948.47;5015456;28;102196;-51
2021/10/15 09:56:04;;;;;;;;;;;;;;;15.96;66.67;101940.25;5008181;28;102241;-51
2021/10/15 09:58:30;;;;;;;;;;;;;;;15.96;67.03;101941.06;5008094;28;102249;-51
2021/10/15 10:00:56;;;;;;;;;;;;;;;15.96;67.15;101929.25;5011647;28;103862;-51
2021/10/15 10:03:23;;;;;;;;;;;;;;;15.97;66.65;101931.72;5001700;28;102583;-51
2021/10/15 10:05:51;;;;;;;;;;;;;;;15.97;66.97;101939.13;5014238;28;102320;-51
2021/10/15 10:08:17;;;;;;;;;;;;;;;15.96;66.62;101930.06;5019268;28;102660;-51
2021/10/15 10:10:44;;;;;;;;;;;;;;;15.96;67.05;101929.25;5018390;28;103989;-51
2021/10/15 10:13:13;;;;;;;;;;;;;;;15.97;66.56;101930.88;5021941;28;102640;-51
2021/10/15 10:15:40;;;;;;;;;;;;;;;15.97;66.74;101923.47;5017025;28;102172;-51
2021/10/15 10:20:58;;;;;;;;;;;;;;;15.97;66.98;101926.22;5011696;28;108068;-51
2021/10/15 10:23:27;;;;;;;;;;;;;;;15.97;67.12;101931.72;5014307;28;102393;-51
2021/10/15 10:25:57;;;;;;;;;;;;;;;15.97;67.13;101928.97;5010902;28;102445;-51
2021/10/15 10:28:24;;;;;;;;;;;;;;;15.97;66.68;101931.72;5011726;28;102782;-51
2021/10/15 10:30:51;;;;;;;;;;;;;;;15.97;66.55;101926.22;5013765;28;103766;-51
2021/10/15 10:33:18;;;;;;;;;;;;;;;15.97;66.80;101923.47;5017782;28;102139;-51
2021/10/15 10:35:44;;;;;;;;;;;;;;;15.97;66.85;101920.72;5016986;28;102329;-51
2021/10/15 10:38:29;;;;;;;;;;;;;;;15.96;66.84;101916.34;5000374;28;102373;-51
2021/10/15 10:41:29;;;;;;;;;;;;;;;15.97;67.11;101926.22;5011763;28;104193;-51
2021/10/15 10:44:11;;;;;;;;;;;;;;;15.96;67.06;101919.09;5007964;28;102222;-51
2021/10/15 10:46:38;;;;;;;;;;;;;;;15.97;66.93;101925.41;5006312;28;102076;-51
2021/10/15 10:49:21;;;;;;;;;;;;;;;15.97;66.53;101915.22;5014840;28;102261;-51
2021/10/15 10:52:07;;;;;;;;;;;;;;;15.97;66.79;101919.91;5004823;28;103898;-51
2021/10/15 10:54:34;;;;;;;;;;;;;;;15.96;66.62;101919.09;5016477;28;102068;-51
2021/10/15 10:57:11;;;;;;;;;;;;;;;15.97;66.96;101920.72;5012936;28;102166;-51
2021/10/15 10:59:38;;;;;;;;;;;;;;;15.98;66.99;101922.41;5008121;28;102551;-51
2021/10/15 11:44:36;;;;;;;105.53;19.00;;;;;;;15.90;66.93;101892.75;4985354;27;104856;-87
2021/10/15 11:47:09;;;;;;;125.03;18.67;;;;;;;15.91;66.75;101883.44;4988778;28;102747;-87
2021/10/15 11:49:37;;;;;;;98.40;16.80;;;;;;;15.96;66.71;101875.16;4977514;28;103635;-85
2021/10/15 11:52:04;;;;;;;87.20;15.60;;;;;;;16.00;66.96;101876.25;4977664;28;103697;-87
2021/10/15 11:54:31;;;;;;;99.38;15.77;;;;;;;16.05;66.47;101873.50;4976254;28;103965;-86
2021/10/15 12:20:40;;;;;;;14.45;8.23;;;;;;;15.94;65.30;101814.25;5045309;27;102724;-82
2021/10/15 12:23:07;;;;;;;12.73;7.83;;;;;;;15.94;66.00;101814.25;5031674;27;102378;-82
2021/10/15 12:25:38;;;;;;;10.40;7.30;;;;;;;15.96;65.74;101806.53;5016057;28;102723;-81
2021/10/15 12:28:12;;;;;;;14.07;8.13;;;;;;;15.96;65.86;101808.44;5013238;28;102511;-82
2021/10/15 12:30:39;;;;;;;12.88;6.80;;;;;;;15.96;65.73;101814.75;5011478;28;102654;-82
2021/10/15 12:33:08;;;;;;;9.43;6.97;;;;;;;15.95;66.13;101813.13;5011341;28;102102;-81
2021/10/15 12:35:36;;;;;;;11.00;7.18;;;;;;;15.96;65.94;101803.78;4997481;28;102841;-81
2021/10/15 12:38:04;;;;;;;8.52;7.22;;;;;;;15.96;65.92;101797.47;5010545;28;102208;-82
2021/10/15 12:40:42;;;;;;;9.25;7.38;;;;;;;15.96;65.84;101791.97;5026771;27;102355;-81
2021/10/15 12:43:13;;;;;;;11.25;7.50;;;;;;;15.95;65.83;101795.84;5036855;27;102561;-81
2021/10/15 12:45:42;;;;;;;8.07;6.60;;;;;;;15.94;66.00;101795.03;5010536;28;104125;-82
2021/10/15 12:48:14;;;;;;;8.48;6.93;;;;;;;15.95;65.84;101796.66;4999673;28;102337;-81
2021/10/15 12:50:43;;;;;;;8.95;6.53;;;;;;;15.94;65.69;101789.53;5031521;27;102025;-81
2021/10/15 12:53:14;;;;;;;7.07;6.10;;;;;;;15.94;66.16;101786.78;5034021;27;102376;-81
2021/10/15 12:55:49;;;;;;;8.13;6.85;;;;;;;15.93;65.92;101787.88;5032431;27;102849;-81
2021/10/15 12:58:17;;;;;;;10.32;6.50;;;;;;;15.94;65.61;101785.94;5027084;27;102250;-81
2021/10/15 13:00:50;;;;;;;11.65;6.85;;;;;;;15.93;65.69;101781.56;5035281;27;102527;-81
2021/10/15 13:03:16;;;;;;;9.75;6.88;;;;;;;15.93;65.67;101776.88;5037232;28;102785;-81
2021/10/15 13:05:43;;;;;;;8.50;6.25;;;;;;;15.93;65.55;101765.09;5032649;27;102800;-81
2021/10/15 13:08:13;;;;;;;7.47;6.60;;;;;;;15.93;65.45;101774.13;5036346;27;102218;-81
2021/10/15 13:10:40;;;;;;;9.20;6.32;;;;;;;15.92;65.68;101764.25;5030365;27;102059;-81
2021/10/15 13:13:06;;;;;;;8.02;5.88;;;;;;;15.93;65.84;101765.91;5040920;27;102164;-81
2021/10/15 13:15:33;;;;;;;8.75;5.95;;;;;;;15.92;65.42;101758.78;5055291;27;102931;-81
2021/10/15 13:18:00;;;;;;;6.88;6.15;;;;;;;15.91;65.37;101759.88;5054270;27;102329;-81
2021/10/15 13:20:26;;;;;;;8.15;6.15;;;;;;;15.92;65.81;101757.97;5054258;27;102766;-82
2021/10/15 13:22:54;;;;;;;7.40;6.20;;;;;;;15.92;65.67;101763.44;5053987;27;102679;-81
2021/10/15 13:25:22;;;;;;;7.53;6.18;;;;;;;15.92;65.63;101758.78;5068469;27;102135;-81
2021/10/15 13:27:49;;;;;;;6.40;5.70;;;;;;;15.91;65.64;101751.66;5052620;27;102256;-81
2021/10/15 13:30:16;;;;;;;6.85;5.60;;;;;;;15.91;65.53;101754.41;5042057;27;102477;-81
2021/10/15 13:32:43;;;;;;;6.75;6.05;;;;;;;15.91;65.66;101757.16;5040302;27;102780;-82
2021/10/15 13:35:10;;;;;;;8.20;6.00;;;;;;;15.90;65.64;101750.00;5037043;27;102700;-81
2021/10/15 13:38:21;;;;;;;6.78;6.03;;;;;;;15.90;65.74;101750.00;5039170;27;102554;-82
2021/10/15 13:40:31;;;;;;;8.07;6.38;;;;;;;15.90;65.82;101746.44;5029012;27;103088;-82
2021/10/15 13:50:30;;;;;;;8.75;6.45;;;;;;;15.89;65.67;101753.84;5033924;27;102653;-82